sensor_id;sensor_type;location;lat;lon;timestamp;temperature;humidity
24103;DHT22;12278;53.058;9.028;2023-01-26T00:03:56;-1.00;99.90
24103;DHT22;12278;53.058;9.028;2023-01-26T00:07:57;-0.90;99.90
24103;DHT22;12278;53.058;9.028;2023-01-26T00:11:57;-1.00;99.90
24103;DHT22;12278;53.058;9.028;2023-01-26T00:15:58;-0.90;99.90
24103;DHT22;12278;53.058;9.028;2023-01-26T00:19:59;-0.90;99.90
24103;DHT22;12278;53.058;9.028;2023-01-26T00:23:59;-1.00;99.90
24103;DHT22;12278;53.058;9.028;2023-01-26T00:28:00;-1.00;99.90
24103;DHT22;12278;53.058;9.028;2023-01-26T00:32:00;-1.10;99.90
24103;DHT22;12278;53.058;9.028;2023-01-26T00:36:01;-1.00;99.90
24103;DHT22;12278;53.058;9.028;2023-01-26T00:40:02;-1.10;99.90
24103;DHT22;12278;53.058;9.028;2023-01-26T00:44:02;-1.10;99.90
24103;DHT22;12278;53.058;9.028;2023-01-26T00:48:03;-1.10;99.90
24103;DHT22;12278;53.058;9.028;2023-01-26T00:52:04;-1.00;99.90
24103;DHT22;12278;53.058;9.028;2023-01-26T00:56:05;-1.00;99.90
24103;DHT22;12278;53.058;9.028;2023-01-26T01:00:06;-0.90;99.90
24103;DHT22;12278;53.058;9.028;2023-01-26T01:04:08;-0.90;99.90
24103;DHT22;12278;53.058;9.028;2023-01-26T01:08:09;-0.90;99.90
24103;DHT22;12278;53.058;9.028;2023-01-26T01:12:09;-0.90;99.90
24103;DHT22;12278;53.058;9.028;2023-01-26T01:16:12;-1.00;99.90
24103;DHT22;12278;53.058;9.028;2023-01-26T01:20:13;-0.90;99.90
24103;DHT22;12278;53.058;9.028;2023-01-26T01:24:13;-0.90;99.90
24103;DHT22;12278;53.058;9.028;2023-01-26T01:28:14;-0.80;99.90
24103;DHT22;12278;53.058;9.028;2023-01-26T01:32:15;-0.90;99.90
24103;DHT22;12278;53.058;9.028;2023-01-26T01:36:16;-0.90;99.90
24103;DHT22;12278;53.058;9.028;2023-01-26T01:40:16;-0.90;99.90
24103;DHT22;12278;53.058;9.028;2023-01-26T01:44:20;-0.90;99.90
24103;DHT22;12278;53.058;9.028;2023-01-26T01:52:31;-0.70;99.90
24103;DHT22;12278;53.058;9.028;2023-01-26T01:56:33;-0.90;99.90
24103;DHT22;12278;53.058;9.028;2023-01-26T02:00:34;-0.80;99.90
24103;DHT22;12278;53.058;9.028;2023-01-26T02:04:35;-0.80;99.90
24103;DHT22;12278;53.058;9.028;2023-01-26T02:08:43;-0.80;99.90
24103;DHT22;12278;53.058;9.028;2023-01-26T02:12:46;-0.80;99.90
24103;DHT22;12278;53.058;9.028;2023-01-26T02:16:48;-0.80;99.90
24103;DHT22;12278;53.058;9.028;2023-01-26T02:20:51;-0.80;99.90
24103;DHT22;12278;53.058;9.028;2023-01-26T02:24:56;-0.70;99.90
24103;DHT22;12278;53.058;9.028;2023-01-26T02:28:59;-0.70;99.90
24103;DHT22;12278;53.058;9.028;2023-01-26T02:33:00;-0.70;99.90
24103;DHT22;12278;53.058;9.028;2023-01-26T02:37:00;-0.60;99.90
24103;DHT22;12278;53.058;9.028;2023-01-26T02:41:10;-0.60;99.90
24103;DHT22;12278;53.058;9.028;2023-01-26T02:45:13;-0.70;99.90
24103;DHT22;12278;53.058;9.028;2023-01-26T02:49:15;-0.70;99.90
24103;DHT22;12278;53.058;9.028;2023-01-26T02:53:34;-0.70;99.90
24103;DHT22;12278;53.058;9.028;2023-01-26T02:57:34;-0.60;99.90
24103;DHT22;12278;53.058;9.028;2023-01-26T03:01:35;-0.60;99.90
24103;DHT22;12278;53.058;9.028;2023-01-26T03:05:35;-0.60;99.90
24103;DHT22;12278;53.058;9.028;2023-01-26T03:09:37;-0.60;99.90
24103;DHT22;12278;53.058;9.028;2023-01-26T03:13:38;-0.60;99.90
24103;DHT22;12278;53.058;9.028;2023-01-26T03:17:38;-0.60;99.90
24103;DHT22;12278;53.058;9.028;2023-01-26T03:21:39;-0.60;99.90
24103;DHT22;12278;53.058;9.028;2023-01-26T03:25:58;-0.50;99.90
24103;DHT22;12278;53.058;9.028;2023-01-26T03:30:18;-0.50;99.90
24103;DHT22;12278;53.058;9.028;2023-01-26T03:34:18;-0.50;99.90
24103;DHT22;12278;53.058;9.028;2023-01-26T03:38:25;-0.50;99.90
24103;DHT22;12278;53.058;9.028;2023-01-26T03:42:26;-0.50;99.90
24103;DHT22;12278;53.058;9.028;2023-01-26T03:46:45;-0.40;99.90
24103;DHT22;12278;53.058;9.028;2023-01-26T03:51:04;-0.40;99.90
24103;DHT22;12278;53.058;9.028;2023-01-26T03:55:23;-0.30;99.90
24103;DHT22;12278;53.058;9.028;2023-01-26T03:59:42;-0.40;99.90
24103;DHT22;12278;53.058;9.028;2023-01-26T04:03:43;-0.50;99.90
24103;DHT22;12278;53.058;9.028;2023-01-26T04:08:03;-0.40;99.90
24103;DHT22;12278;53.058;9.028;2023-01-26T04:12:22;-0.40;99.90
24103;DHT22;12278;53.058;9.028;2023-01-26T04:16:23;-0.30;99.90
24103;DHT22;12278;53.058;9.028;2023-01-26T04:20:44;-0.30;99.90
24103;DHT22;12278;53.058;9.028;2023-01-26T04:25:03;-0.30;99.90
24103;DHT22;12278;53.058;9.028;2023-01-26T04:29:09;-0.30;99.90
24103;DHT22;12278;53.058;9.028;2023-01-26T04:33:10;-0.30;99.90
24103;DHT22;12278;53.058;9.028;2023-01-26T04:37:12;-0.30;99.90
24103;DHT22;12278;53.058;9.028;2023-01-26T04:41:12;-0.20;99.90
24103;DHT22;12278;53.058;9.028;2023-01-26T04:45:13;-0.20;99.90
24103;DHT22;12278;53.058;9.028;2023-01-26T04:49:14;-0.20;99.90
24103;DHT22;12278;53.058;9.028;2023-01-26T04:53:14;-0.10;99.90
24103;DHT22;12278;53.058;9.028;2023-01-26T04:57:20;-0.10;99.90
24103;DHT22;12278;53.058;9.028;2023-01-26T05:01:22;-0.20;99.90
24103;DHT22;12278;53.058;9.028;2023-01-26T05:05:23;-0.10;99.90
24103;DHT22;12278;53.058;9.028;2023-01-26T05:09:24;-0.10;99.90
24103;DHT22;12278;53.058;9.028;2023-01-26T05:13:26;0.00;99.90
24103;DHT22;12278;53.058;9.028;2023-01-26T05:17:27;-0.10;99.90
24103;DHT22;12278;53.058;9.028;2023-01-26T05:21:27;0.00;99.90
24103;DHT22;12278;53.058;9.028;2023-01-26T05:25:28;0.00;99.90
24103;DHT22;12278;53.058;9.028;2023-01-26T05:29:29;0.10;99.90
24103;DHT22;12278;53.058;9.028;2023-01-26T05:33:29;0.20;99.90
24103;DHT22;12278;53.058;9.028;2023-01-26T05:37:30;0.10;99.90
24103;DHT22;12278;53.058;9.028;2023-01-26T05:41:30;0.40;99.90
24103;DHT22;12278;53.058;9.028;2023-01-26T05:45:31;0.40;99.90
24103;DHT22;12278;53.058;9.028;2023-01-26T05:49:32;0.40;99.90
24103;DHT22;12278;53.058;9.028;2023-01-26T05:53:33;0.40;99.90
24103;DHT22;12278;53.058;9.028;2023-01-26T05:57:34;0.40;99.90
24103;DHT22;12278;53.058;9.028;2023-01-26T06:01:35;0.30;99.90
24103;DHT22;12278;53.058;9.028;2023-01-26T06:05:37;0.20;99.90
24103;DHT22;12278;53.058;9.028;2023-01-26T06:09:40;0.20;99.90
24103;DHT22;12278;53.058;9.028;2023-01-26T06:13:41;0.20;99.90
24103;DHT22;12278;53.058;9.028;2023-01-26T06:17:42;0.30;99.90
24103;DHT22;12278;53.058;9.028;2023-01-26T06:21:42;0.30;99.90
24103;DHT22;12278;53.058;9.028;2023-01-26T06:25:43;0.30;99.90
24103;DHT22;12278;53.058;9.028;2023-01-26T06:29:44;0.30;99.90
24103;DHT22;12278;53.058;9.028;2023-01-26T06:33:45;0.30;99.90
24103;DHT22;12278;53.058;9.028;2023-01-26T06:37:49;0.30;99.90
24103;DHT22;12278;53.058;9.028;2023-01-26T06:41:50;0.40;99.90
24103;DHT22;12278;53.058;9.028;2023-01-26T06:45:51;0.30;99.90
24103;DHT22;12278;53.058;9.028;2023-01-26T06:49:51;0.40;99.90
24103;DHT22;12278;53.058;9.028;2023-01-26T06:53:54;0.40;99.90
24103;DHT22;12278;53.058;9.028;2023-01-26T06:57:55;0.40;99.90
24103;DHT22;12278;53.058;9.028;2023-01-26T07:01:55;0.40;99.90
24103;DHT22;12278;53.058;9.028;2023-01-26T07:05:56;0.40;99.90
24103;DHT22;12278;53.058;9.028;2023-01-26T07:09:57;0.40;99.90
24103;DHT22;12278;53.058;9.028;2023-01-26T07:13:58;0.50;99.90
24103;DHT22;12278;53.058;9.028;2023-01-26T07:17:59;0.50;99.90
24103;DHT22;12278;53.058;9.028;2023-01-26T07:22:00;0.50;99.90
24103;DHT22;12278;53.058;9.028;2023-01-26T07:26:01;0.50;99.90
24103;DHT22;12278;53.058;9.028;2023-01-26T07:30:02;0.50;99.90
24103;DHT22;12278;53.058;9.028;2023-01-26T07:34:03;0.50;99.90
24103;DHT22;12278;53.058;9.028;2023-01-26T07:38:04;0.50;99.90
24103;DHT22;12278;53.058;9.028;2023-01-26T07:42:05;0.50;99.90
24103;DHT22;12278;53.058;9.028;2023-01-26T07:46:05;0.50;99.90
24103;DHT22;12278;53.058;9.028;2023-01-26T07:50:06;0.50;99.90
24103;DHT22;12278;53.058;9.028;2023-01-26T07:54:10;0.50;99.90
24103;DHT22;12278;53.058;9.028;2023-01-26T07:58:11;0.60;99.90
24103;DHT22;12278;53.058;9.028;2023-01-26T08:02:12;0.60;99.90
24103;DHT22;12278;53.058;9.028;2023-01-26T08:06:13;0.60;99.90
24103;DHT22;12278;53.058;9.028;2023-01-26T08:10:13;0.60;99.90
24103;DHT22;12278;53.058;9.028;2023-01-26T08:14:14;0.70;99.90
24103;DHT22;12278;53.058;9.028;2023-01-26T08:18:15;0.60;99.90
24103;DHT22;12278;53.058;9.028;2023-01-26T08:22:15;0.70;99.90
24103;DHT22;12278;53.058;9.028;2023-01-26T08:26:16;0.60;99.90
24103;DHT22;12278;53.058;9.028;2023-01-26T08:30:18;0.70;99.90
24103;DHT22;12278;53.058;9.028;2023-01-26T08:34:18;0.60;99.90
24103;DHT22;12278;53.058;9.028;2023-01-26T08:38:21;0.70;99.90
24103;DHT22;12278;53.058;9.028;2023-01-26T08:42:22;0.70;99.90
24103;DHT22;12278;53.058;9.028;2023-01-26T08:46:22;0.80;99.90
24103;DHT22;12278;53.058;9.028;2023-01-26T08:50:24;0.80;99.90
24103;DHT22;12278;53.058;9.028;2023-01-26T08:54:25;0.90;99.90
24103;DHT22;12278;53.058;9.028;2023-01-26T08:58:25;0.90;99.90
24103;DHT22;12278;53.058;9.028;2023-01-26T09:02:26;0.90;99.90
24103;DHT22;12278;53.058;9.028;2023-01-26T09:06:26;1.00;99.90
24103;DHT22;12278;53.058;9.028;2023-01-26T09:10:27;0.90;99.90
24103;DHT22;12278;53.058;9.028;2023-01-26T09:14:28;0.90;99.90
24103;DHT22;12278;53.058;9.028;2023-01-26T09:18:29;0.90;99.90
24103;DHT22;12278;53.058;9.028;2023-01-26T09:22:30;1.00;99.90
24103;DHT22;12278;53.058;9.028;2023-01-26T09:26:30;1.00;99.90
24103;DHT22;12278;53.058;9.028;2023-01-26T09:30:31;1.10;99.90
24103;DHT22;12278;53.058;9.028;2023-01-26T09:34:32;1.10;99.90
24103;DHT22;12278;53.058;9.028;2023-01-26T09:38:33;1.20;99.90
24103;DHT22;12278;53.058;9.028;2023-01-26T09:43:19;1.10;99.90
24103;DHT22;12278;53.058;9.028;2023-01-26T09:51:48;1.20;99.90
24103;DHT22;12278;53.058;9.028;2023-01-26T09:55:51;1.20;99.90
24103;DHT22;12278;53.058;9.028;2023-01-26T10:00:20;1.10;99.90
24103;DHT22;12278;53.058;9.028;2023-01-26T10:04:29;1.20;99.90
24103;DHT22;12278;53.058;9.028;2023-01-26T10:08:33;1.20;99.90
24103;DHT22;12278;53.058;9.028;2023-01-26T10:12:35;1.20;99.90
24103;DHT22;12278;53.058;9.028;2023-01-26T10:16:37;1.30;99.90
24103;DHT22;12278;53.058;9.028;2023-01-26T10:20:42;1.20;99.90
24103;DHT22;12278;53.058;9.028;2023-01-26T10:24:46;1.30;99.90
24103;DHT22;12278;53.058;9.028;2023-01-26T10:28:51;1.40;99.90
24103;DHT22;12278;53.058;9.028;2023-01-26T10:32:52;1.40;99.90
24103;DHT22;12278;53.058;9.028;2023-01-26T10:41:27;1.40;99.90
24103;DHT22;12278;53.058;9.028;2023-01-26T10:45:30;1.50;99.90
24103;DHT22;12278;53.058;9.028;2023-01-26T10:49:31;1.40;99.90
24103;DHT22;12278;53.058;9.028;2023-01-26T10:53:31;1.50;99.90
24103;DHT22;12278;53.058;9.028;2023-01-26T10:57:37;1.50;99.90
24103;DHT22;12278;53.058;9.028;2023-01-26T11:01:55;1.60;99.90
24103;DHT22;12278;53.058;9.028;2023-01-26T11:06:14;1.60;99.90
24103;DHT22;12278;53.058;9.028;2023-01-26T11:15:01;1.70;99.90
24103;DHT22;12278;53.058;9.028;2023-01-26T11:19:08;1.70;99.90
24103;DHT22;12278;53.058;9.028;2023-01-26T11:32:10;2.00;99.90
24103;DHT22;12278;53.058;9.028;2023-01-26T11:40:39;2.10;99.90
24103;DHT22;12278;53.058;9.028;2023-01-26T11:49:34;2.10;99.90
24103;DHT22;12278;53.058;9.028;2023-01-26T11:53:58;2.10;99.90
24103;DHT22;12278;53.058;9.028;2023-01-26T12:06:35;2.20;99.90
24103;DHT22;12278;53.058;9.028;2023-01-26T12:15:03;2.40;99.90
24103;DHT22;12278;53.058;9.028;2023-01-26T12:23:30;2.50;99.90
24103;DHT22;12278;53.058;9.028;2023-01-26T12:27:43;2.50;99.90
24103;DHT22;12278;53.058;9.028;2023-01-26T12:40:33;2.60;99.90
24103;DHT22;12278;53.058;9.028;2023-01-26T12:44:42;2.60;99.90
24103;DHT22;12278;53.058;9.028;2023-01-26T12:48:58;2.70;99.90
24103;DHT22;12278;53.058;9.028;2023-01-26T12:57:23;2.70;99.90
24103;DHT22;12278;53.058;9.028;2023-01-26T13:01:37;2.80;99.90
24103;DHT22;12278;53.058;9.028;2023-01-26T13:05:40;2.90;99.90
24103;DHT22;12278;53.058;9.028;2023-01-26T13:14:22;3.10;99.90
24103;DHT22;12278;53.058;9.028;2023-01-26T13:18:47;3.30;99.90
24103;DHT22;12278;53.058;9.028;2023-01-26T13:22:49;3.70;99.90
24103;DHT22;12278;53.058;9.028;2023-01-26T13:26:55;3.90;99.90
24103;DHT22;12278;53.058;9.028;2023-01-26T13:31:04;4.00;99.90
24103;DHT22;12278;53.058;9.028;2023-01-26T13:35:08;4.10;99.90
24103;DHT22;12278;53.058;9.028;2023-01-26T13:39:30;4.10;99.90
24103;DHT22;12278;53.058;9.028;2023-01-26T13:43:41;4.10;99.90
24103;DHT22;12278;53.058;9.028;2023-01-26T13:47:45;4.30;99.90
24103;DHT22;12278;53.058;9.028;2023-01-26T13:51:47;4.40;99.90
24103;DHT22;12278;53.058;9.028;2023-01-26T13:55:52;4.30;99.90
24103;DHT22;12278;53.058;9.028;2023-01-26T13:59:58;4.30;99.90
24103;DHT22;12278;53.058;9.028;2023-01-26T14:04:15;4.30;99.90
24103;DHT22;12278;53.058;9.028;2023-01-26T14:08:16;4.30;99.90
24103;DHT22;12278;53.058;9.028;2023-01-26T14:12:42;4.40;99.90
24103;DHT22;12278;53.058;9.028;2023-01-26T14:16:44;4.30;99.90
24103;DHT22;12278;53.058;9.028;2023-01-26T14:20:45;4.30;99.90
24103;DHT22;12278;53.058;9.028;2023-01-26T14:24:50;4.30;99.90
24103;DHT22;12278;53.058;9.028;2023-01-26T14:28:51;4.30;99.90
24103;DHT22;12278;53.058;9.028;2023-01-26T14:33:16;4.30;99.90
24103;DHT22;12278;53.058;9.028;2023-01-26T14:37:17;4.30;99.90
24103;DHT22;12278;53.058;9.028;2023-01-26T14:41:24;4.30;99.90
24103;DHT22;12278;53.058;9.028;2023-01-26T14:45:27;4.30;99.90
24103;DHT22;12278;53.058;9.028;2023-01-26T14:49:36;4.30;99.90
24103;DHT22;12278;53.058;9.028;2023-01-26T14:53:46;4.30;99.90
24103;DHT22;12278;53.058;9.028;2023-01-26T14:57:48;4.30;99.90
24103;DHT22;12278;53.058;9.028;2023-01-26T15:02:00;4.30;99.90
24103;DHT22;12278;53.058;9.028;2023-01-26T15:10:25;4.30;99.90
24103;DHT22;12278;53.058;9.028;2023-01-26T15:14:47;4.30;99.90
24103;DHT22;12278;53.058;9.028;2023-01-26T15:19:02;4.30;99.90
24103;DHT22;12278;53.058;9.028;2023-01-26T15:23:39;4.20;99.90
24103;DHT22;12278;53.058;9.028;2023-01-26T15:27:40;4.20;99.90
24103;DHT22;12278;53.058;9.028;2023-01-26T15:31:50;4.20;99.90
24103;DHT22;12278;53.058;9.028;2023-01-26T15:35:56;4.20;99.90
24103;DHT22;12278;53.058;9.028;2023-01-26T15:39:58;4.20;99.90
24103;DHT22;12278;53.058;9.028;2023-01-26T15:43:59;4.20;99.90
24103;DHT22;12278;53.058;9.028;2023-01-26T15:48:01;4.20;99.90
24103;DHT22;12278;53.058;9.028;2023-01-26T15:52:01;4.20;99.90
24103;DHT22;12278;53.058;9.028;2023-01-26T15:56:02;4.10;99.90
24103;DHT22;12278;53.058;9.028;2023-01-26T16:00:03;4.10;99.90
24103;DHT22;12278;53.058;9.028;2023-01-26T16:04:04;4.20;99.90
24103;DHT22;12278;53.058;9.028;2023-01-26T16:08:04;4.10;99.90
24103;DHT22;12278;53.058;9.028;2023-01-26T16:12:09;4.10;99.90
24103;DHT22;12278;53.058;9.028;2023-01-26T16:16:13;4.10;99.90
24103;DHT22;12278;53.058;9.028;2023-01-26T16:20:13;4.10;99.90
24103;DHT22;12278;53.058;9.028;2023-01-26T16:24:14;4.20;99.90
24103;DHT22;12278;53.058;9.028;2023-01-26T16:28:14;4.30;99.90
24103;DHT22;12278;53.058;9.028;2023-01-26T16:32:27;4.20;99.90
24103;DHT22;12278;53.058;9.028;2023-01-26T16:36:28;4.30;99.90
24103;DHT22;12278;53.058;9.028;2023-01-26T16:40:29;4.30;99.90
24103;DHT22;12278;53.058;9.028;2023-01-26T16:44:29;4.30;99.90
24103;DHT22;12278;53.058;9.028;2023-01-26T16:48:30;4.30;99.90
24103;DHT22;12278;53.058;9.028;2023-01-26T16:52:34;4.40;99.90
24103;DHT22;12278;53.058;9.028;2023-01-26T16:56:35;4.40;99.90
24103;DHT22;12278;53.058;9.028;2023-01-26T17:00:35;4.40;99.90
24103;DHT22;12278;53.058;9.028;2023-01-26T17:04:36;4.40;99.90
24103;DHT22;12278;53.058;9.028;2023-01-26T17:08:37;4.40;99.90
24103;DHT22;12278;53.058;9.028;2023-01-26T17:12:37;4.40;99.90
24103;DHT22;12278;53.058;9.028;2023-01-26T17:16:38;4.40;99.90
24103;DHT22;12278;53.058;9.028;2023-01-26T17:20:39;4.40;99.90
24103;DHT22;12278;53.058;9.028;2023-01-26T17:24:41;4.50;99.90
24103;DHT22;12278;53.058;9.028;2023-01-26T17:28:53;4.40;99.90
24103;DHT22;12278;53.058;9.028;2023-01-26T17:32:54;4.40;99.90
24103;DHT22;12278;53.058;9.028;2023-01-26T17:36:54;4.40;99.90
24103;DHT22;12278;53.058;9.028;2023-01-26T17:40:57;4.40;99.90
24103;DHT22;12278;53.058;9.028;2023-01-26T17:44:58;4.50;99.90
24103;DHT22;12278;53.058;9.028;2023-01-26T17:48:58;4.40;99.90
24103;DHT22;12278;53.058;9.028;2023-01-26T17:52:59;4.40;99.90
24103;DHT22;12278;53.058;9.028;2023-01-26T17:57:00;4.40;99.90
24103;DHT22;12278;53.058;9.028;2023-01-26T18:01:00;4.50;99.90
24103;DHT22;12278;53.058;9.028;2023-01-26T18:05:02;4.50;99.90
24103;DHT22;12278;53.058;9.028;2023-01-26T18:09:03;4.40;99.90
24103;DHT22;12278;53.058;9.028;2023-01-26T18:13:04;4.40;99.90
24103;DHT22;12278;53.058;9.028;2023-01-26T18:17:05;4.50;99.90
24103;DHT22;12278;53.058;9.028;2023-01-26T18:21:17;4.50;99.90
24103;DHT22;12278;53.058;9.028;2023-01-26T18:25:18;4.40;99.90
24103;DHT22;12278;53.058;9.028;2023-01-26T18:29:20;4.40;99.90
24103;DHT22;12278;53.058;9.028;2023-01-26T18:33:21;4.40;99.90
24103;DHT22;12278;53.058;9.028;2023-01-26T18:37:21;4.40;99.90
24103;DHT22;12278;53.058;9.028;2023-01-26T18:41:23;4.40;99.90
24103;DHT22;12278;53.058;9.028;2023-01-26T18:45:25;4.40;99.90
24103;DHT22;12278;53.058;9.028;2023-01-26T18:49:25;4.40;99.90
24103;DHT22;12278;53.058;9.028;2023-01-26T18:53:26;4.40;99.90
24103;DHT22;12278;53.058;9.028;2023-01-26T18:57:29;4.40;99.90
24103;DHT22;12278;53.058;9.028;2023-01-26T19:01:29;4.50;99.90
24103;DHT22;12278;53.058;9.028;2023-01-26T19:05:32;4.40;99.90
24103;DHT22;12278;53.058;9.028;2023-01-26T19:09:33;4.40;99.90
24103;DHT22;12278;53.058;9.028;2023-01-26T19:13:35;4.40;99.90
24103;DHT22;12278;53.058;9.028;2023-01-26T19:17:35;4.40;99.90
24103;DHT22;12278;53.058;9.028;2023-01-26T19:21:36;4.30;99.90
24103;DHT22;12278;53.058;9.028;2023-01-26T19:25:36;4.20;99.90
24103;DHT22;12278;53.058;9.028;2023-01-26T19:29:37;4.20;99.90
24103;DHT22;12278;53.058;9.028;2023-01-26T19:33:38;4.10;99.90
24103;DHT22;12278;53.058;9.028;2023-01-26T19:37:39;4.00;99.90
24103;DHT22;12278;53.058;9.028;2023-01-26T19:41:39;4.00;99.90
24103;DHT22;12278;53.058;9.028;2023-01-26T19:45:49;4.00;99.90
24103;DHT22;12278;53.058;9.028;2023-01-26T19:49:52;4.00;99.90
24103;DHT22;12278;53.058;9.028;2023-01-26T19:53:54;3.90;99.90
24103;DHT22;12278;53.058;9.028;2023-01-26T19:57:55;3.90;99.90
24103;DHT22;12278;53.058;9.028;2023-01-26T20:01:55;3.90;99.90
24103;DHT22;12278;53.058;9.028;2023-01-26T20:06:15;3.90;99.90
24103;DHT22;12278;53.058;9.028;2023-01-26T20:10:16;3.80;99.90
24103;DHT22;12278;53.058;9.028;2023-01-26T20:14:21;3.80;99.90
24103;DHT22;12278;53.058;9.028;2023-01-26T20:18:22;3.80;99.90
24103;DHT22;12278;53.058;9.028;2023-01-26T20:22:23;3.80;99.90
24103;DHT22;12278;53.058;9.028;2023-01-26T20:26:24;3.70;99.90
24103;DHT22;12278;53.058;9.028;2023-01-26T20:30:25;3.70;99.90
24103;DHT22;12278;53.058;9.028;2023-01-26T20:34:25;3.70;99.90
24103;DHT22;12278;53.058;9.028;2023-01-26T20:38:26;3.70;99.90
24103;DHT22;12278;53.058;9.028;2023-01-26T20:42:27;3.70;99.90
24103;DHT22;12278;53.058;9.028;2023-01-26T20:46:28;3.70;99.90
24103;DHT22;12278;53.058;9.028;2023-01-26T20:50:29;3.70;99.90
24103;DHT22;12278;53.058;9.028;2023-01-26T20:54:35;3.60;99.90
24103;DHT22;12278;53.058;9.028;2023-01-26T20:58:36;3.60;99.90
24103;DHT22;12278;53.058;9.028;2023-01-26T21:02:36;3.60;99.90
24103;DHT22;12278;53.058;9.028;2023-01-26T21:06:38;3.60;99.90
24103;DHT22;12278;53.058;9.028;2023-01-26T21:10:40;3.60;99.90
24103;DHT22;12278;53.058;9.028;2023-01-26T21:14:41;3.60;99.90
24103;DHT22;12278;53.058;9.028;2023-01-26T21:18:41;3.60;99.90
24103;DHT22;12278;53.058;9.028;2023-01-26T21:22:43;3.60;99.90
24103;DHT22;12278;53.058;9.028;2023-01-26T21:26:43;3.60;99.90
24103;DHT22;12278;53.058;9.028;2023-01-26T21:30:44;3.70;99.90
24103;DHT22;12278;53.058;9.028;2023-01-26T21:34:44;3.70;99.90
24103;DHT22;12278;53.058;9.028;2023-01-26T21:38:45;3.80;99.90
24103;DHT22;12278;53.058;9.028;2023-01-26T21:42:47;3.70;99.90
24103;DHT22;12278;53.058;9.028;2023-01-26T21:46:48;3.70;99.90
24103;DHT22;12278;53.058;9.028;2023-01-26T21:50:49;3.70;99.90
24103;DHT22;12278;53.058;9.028;2023-01-26T21:55:08;3.80;99.90
24103;DHT22;12278;53.058;9.028;2023-01-26T21:59:12;3.80;99.90
24103;DHT22;12278;53.058;9.028;2023-01-26T22:03:16;3.80;99.90
24103;DHT22;12278;53.058;9.028;2023-01-26T22:07:17;3.80;99.90
24103;DHT22;12278;53.058;9.028;2023-01-26T22:11:18;3.80;99.90
24103;DHT22;12278;53.058;9.028;2023-01-26T22:15:24;3.80;99.90
24103;DHT22;12278;53.058;9.028;2023-01-26T22:19:25;3.80;99.90
24103;DHT22;12278;53.058;9.028;2023-01-26T22:23:28;3.90;99.90
24103;DHT22;12278;53.058;9.028;2023-01-26T22:27:29;3.90;99.90
24103;DHT22;12278;53.058;9.028;2023-01-26T22:31:30;3.90;99.90
24103;DHT22;12278;53.058;9.028;2023-01-26T22:35:31;3.90;99.90
24103;DHT22;12278;53.058;9.028;2023-01-26T22:39:39;3.80;99.90
24103;DHT22;12278;53.058;9.028;2023-01-26T22:43:54;3.80;99.90
24103;DHT22;12278;53.058;9.028;2023-01-26T22:47:56;3.80;99.90
24103;DHT22;12278;53.058;9.028;2023-01-26T22:51:56;3.80;99.90
24103;DHT22;12278;53.058;9.028;2023-01-26T22:55:57;3.80;99.90
24103;DHT22;12278;53.058;9.028;2023-01-26T22:59:58;3.80;99.90
24103;DHT22;12278;53.058;9.028;2023-01-26T23:03:59;3.80;99.90
24103;DHT22;12278;53.058;9.028;2023-01-26T23:08:00;3.80;99.90
24103;DHT22;12278;53.058;9.028;2023-01-26T23:12:01;3.90;99.90
24103;DHT22;12278;53.058;9.028;2023-01-26T23:16:04;3.90;99.90
24103;DHT22;12278;53.058;9.028;2023-01-26T23:20:05;3.90;99.90
24103;DHT22;12278;53.058;9.028;2023-01-26T23:24:06;3.90;99.90
24103;DHT22;12278;53.058;9.028;2023-01-26T23:28:07;3.90;99.90
24103;DHT22;12278;53.058;9.028;2023-01-26T23:32:08;3.90;99.90
24103;DHT22;12278;53.058;9.028;2023-01-26T23:36:10;4.00;99.90
24103;DHT22;12278;53.058;9.028;2023-01-26T23:40:11;3.90;99.90
24103;DHT22;12278;53.058;9.028;2023-01-26T23:44:12;4.00;99.90
24103;DHT22;12278;53.058;9.028;2023-01-26T23:48:13;4.00;99.90
24103;DHT22;12278;53.058;9.028;2023-01-26T23:52:14;4.00;99.90
24103;DHT22;12278;53.058;9.028;2023-01-26T23:56:16;4.00;99.90
